Zarajsk, Russia
Current Conditions -  °F | °C
As of 5:30 AM on Saturday 01 Nov 2014 (Local Time) from UUDD Reporting Station
Broken Clouds Broken Clouds  
Wind Chill: 32°   Ceiling: 2400
Heat Index: 36°   Visibility: 6mi
Dew Point: 30°   Wind: 4mph
Humidity: 81%   Direction: 270°W
Pressure: 30.06"   Gusts: NA
Location:  54.77°N, 38.88°E
Report Text: UUDD 010230Z 27002MPS 9999 BKN024 02/M01 Q1018 82010095 NOSIG
Loading
Personal Weather Stations






























Interactive Weather Map
Tropical Storm Tracking
New forecast layout! Learn more

10-Day Weather Forecast

Advertisements
Track Severe Weather on mobile